sensor_id;sensor_type;location;lat;lon;timestamp;P1;durP1;ratioP1;P2;durP2;ratioP2
75297;SDS011;63896;45.990;18.688;2024-03-23T00:55:09;57.38;;;29.00;;
75297;SDS011;63896;45.990;18.688;2024-03-23T00:58:11;67.30;;;32.70;;
75297;SDS011;63896;45.990;18.688;2024-03-23T01:01:13;62.28;;;33.72;;
75297;SDS011;63896;45.990;18.688;2024-03-23T01:04:15;80.20;;;35.75;;
75297;SDS011;63896;45.990;18.688;2024-03-23T01:07:17;69.78;;;32.72;;
75297;SDS011;63896;45.990;18.688;2024-03-23T01:10:18;62.00;;;31.27;;
75297;SDS011;63896;45.990;18.688;2024-03-23T01:13:20;70.37;;;34.73;;
75297;SDS011;63896;45.990;18.688;2024-03-23T01:16:23;79.93;;;37.30;;
75297;SDS011;63896;45.990;18.688;2024-03-23T01:19:25;84.80;;;37.78;;
75297;SDS011;63896;45.990;18.688;2024-03-23T01:22:27;64.57;;;29.48;;
75297;SDS011;63896;45.990;18.688;2024-03-23T01:25:29;53.00;;;25.10;;
75297;SDS011;63896;45.990;18.688;2024-03-23T01:28:30;49.60;;;24.83;;
75297;SDS011;63896;45.990;18.688;2024-03-23T01:31:32;47.63;;;24.13;;
75297;SDS011;63896;45.990;18.688;2024-03-23T01:34:34;53.85;;;26.98;;
75297;SDS011;63896;45.990;18.688;2024-03-23T01:37:35;54.70;;;27.17;;
75297;SDS011;63896;45.990;18.688;2024-03-23T01:40:37;54.75;;;27.20;;
75297;SDS011;63896;45.990;18.688;2024-03-23T01:43:39;59.13;;;27.77;;
75297;SDS011;63896;45.990;18.688;2024-03-23T01:46:42;55.60;;;27.08;;
75297;SDS011;63896;45.990;18.688;2024-03-23T01:49:44;56.10;;;27.92;;
75297;SDS011;63896;45.990;18.688;2024-03-23T01:52:46;58.50;;;28.13;;
75297;SDS011;63896;45.990;18.688;2024-03-23T01:55:49;58.15;;;28.55;;
75297;SDS011;63896;45.990;18.688;2024-03-23T01:58:52;57.00;;;26.97;;
75297;SDS011;63896;45.990;18.688;2024-03-23T02:01:54;58.35;;;28.45;;
75297;SDS011;63896;45.990;18.688;2024-03-23T02:04:57;61.75;;;30.45;;
75297;SDS011;63896;45.990;18.688;2024-03-23T02:07:59;54.22;;;28.45;;
75297;SDS011;63896;45.990;18.688;2024-03-23T02:11:00;54.97;;;27.58;;
75297;SDS011;63896;45.990;18.688;2024-03-23T02:14:02;55.03;;;26.60;;
75297;SDS011;63896;45.990;18.688;2024-03-23T02:17:04;54.30;;;26.90;;
75297;SDS011;63896;45.990;18.688;2024-03-23T02:20:06;52.95;;;26.70;;
75297;SDS011;63896;45.990;18.688;2024-03-23T02:23:15;51.08;;;25.88;;
75297;SDS011;63896;45.990;18.688;2024-03-23T02:26:17;51.92;;;26.77;;
75297;SDS011;63896;45.990;18.688;2024-03-23T02:29:19;52.97;;;25.67;;
75297;SDS011;63896;45.990;18.688;2024-03-23T02:32:22;54.05;;;26.50;;
75297;SDS011;63896;45.990;18.688;2024-03-23T02:35:23;52.72;;;25.52;;
75297;SDS011;63896;45.990;18.688;2024-03-23T02:38:25;52.78;;;26.65;;
75297;SDS011;63896;45.990;18.688;2024-03-23T02:41:27;54.95;;;27.98;;
75297;SDS011;63896;45.990;18.688;2024-03-23T02:44:29;55.47;;;26.73;;
75297;SDS011;63896;45.990;18.688;2024-03-23T02:47:30;60.85;;;28.65;;
75297;SDS011;63896;45.990;18.688;2024-03-23T02:50:32;59.58;;;27.25;;
75297;SDS011;63896;45.990;18.688;2024-03-23T02:53:34;66.45;;;28.73;;
75297;SDS011;63896;45.990;18.688;2024-03-23T02:56:36;63.45;;;28.67;;
75297;SDS011;63896;45.990;18.688;2024-03-23T02:59:38;61.03;;;29.47;;
75297;SDS011;63896;45.990;18.688;2024-03-23T03:02:40;57.28;;;28.77;;
75297;SDS011;63896;45.990;18.688;2024-03-23T03:05:42;78.05;;;36.60;;
75297;SDS011;63896;45.990;18.688;2024-03-23T03:08:43;63.95;;;31.40;;
75297;SDS011;63896;45.990;18.688;2024-03-23T03:11:45;58.90;;;29.90;;
75297;SDS011;63896;45.990;18.688;2024-03-23T03:14:47;64.10;;;29.77;;
75297;SDS011;63896;45.990;18.688;2024-03-23T03:17:49;62.47;;;30.02;;
75297;SDS011;63896;45.990;18.688;2024-03-23T03:20:53;60.08;;;30.83;;
75297;SDS011;63896;45.990;18.688;2024-03-23T03:23:56;63.80;;;30.58;;
75297;SDS011;63896;45.990;18.688;2024-03-23T03:26:58;64.03;;;31.42;;
75297;SDS011;63896;45.990;18.688;2024-03-23T03:29:59;67.03;;;31.27;;
75297;SDS011;63896;45.990;18.688;2024-03-23T03:33:03;63.33;;;31.40;;
75297;SDS011;63896;45.990;18.688;2024-03-23T03:36:05;60.95;;;29.83;;
75297;SDS011;63896;45.990;18.688;2024-03-23T03:39:07;70.47;;;31.20;;
75297;SDS011;63896;45.990;18.688;2024-03-23T03:42:08;70.68;;;32.40;;
75297;SDS011;63896;45.990;18.688;2024-03-23T03:45:10;71.03;;;31.70;;
75297;SDS011;63896;45.990;18.688;2024-03-23T03:48:12;71.47;;;32.83;;
75297;SDS011;63896;45.990;18.688;2024-03-23T03:51:14;73.15;;;32.83;;
75297;SDS011;63896;45.990;18.688;2024-03-23T03:54:16;66.93;;;31.02;;
75297;SDS011;63896;45.990;18.688;2024-03-23T03:57:18;64.20;;;30.15;;
75297;SDS011;63896;45.990;18.688;2024-03-23T04:00:20;65.80;;;28.93;;
75297;SDS011;63896;45.990;18.688;2024-03-23T04:03:22;61.50;;;30.50;;
75297;SDS011;63896;45.990;18.688;2024-03-23T04:06:23;62.30;;;30.58;;
75297;SDS011;63896;45.990;18.688;2024-03-23T04:09:25;67.38;;;30.65;;
75297;SDS011;63896;45.990;18.688;2024-03-23T04:12:27;65.53;;;30.80;;
75297;SDS011;63896;45.990;18.688;2024-03-23T04:15:29;68.77;;;31.53;;
75297;SDS011;63896;45.990;18.688;2024-03-23T04:18:31;73.03;;;30.88;;
75297;SDS011;63896;45.990;18.688;2024-03-23T04:21:32;63.08;;;31.63;;
75297;SDS011;63896;45.990;18.688;2024-03-23T04:24:35;67.93;;;32.55;;
75297;SDS011;63896;45.990;18.688;2024-03-23T04:27:37;62.50;;;30.92;;
75297;SDS011;63896;45.990;18.688;2024-03-23T04:30:39;66.20;;;32.47;;
75297;SDS011;63896;45.990;18.688;2024-03-23T04:33:40;62.72;;;31.77;;
75297;SDS011;63896;45.990;18.688;2024-03-23T04:36:42;69.57;;;34.17;;
75297;SDS011;63896;45.990;18.688;2024-03-23T04:39:44;70.35;;;35.50;;
75297;SDS011;63896;45.990;18.688;2024-03-23T04:42:46;75.03;;;35.10;;
75297;SDS011;63896;45.990;18.688;2024-03-23T04:45:47;72.53;;;34.67;;
75297;SDS011;63896;45.990;18.688;2024-03-23T04:48:49;68.82;;;34.78;;
75297;SDS011;63896;45.990;18.688;2024-03-23T04:51:51;71.70;;;34.65;;
75297;SDS011;63896;45.990;18.688;2024-03-23T04:54:52;66.97;;;32.88;;
75297;SDS011;63896;45.990;18.688;2024-03-23T04:57:54;69.10;;;33.17;;
75297;SDS011;63896;45.990;18.688;2024-03-23T05:00:56;73.17;;;33.73;;
75297;SDS011;63896;45.990;18.688;2024-03-23T05:03:58;76.30;;;35.85;;
75297;SDS011;63896;45.990;18.688;2024-03-23T05:07:00;63.92;;;32.72;;
75297;SDS011;63896;45.990;18.688;2024-03-23T05:10:02;66.97;;;30.35;;
75297;SDS011;63896;45.990;18.688;2024-03-23T05:13:05;57.03;;;28.27;;
75297;SDS011;63896;45.990;18.688;2024-03-23T05:16:06;53.70;;;26.20;;
75297;SDS011;63896;45.990;18.688;2024-03-23T05:19:09;54.80;;;25.73;;
75297;SDS011;63896;45.990;18.688;2024-03-23T05:22:11;54.60;;;26.98;;
75297;SDS011;63896;45.990;18.688;2024-03-23T05:25:13;55.90;;;26.58;;
75297;SDS011;63896;45.990;18.688;2024-03-23T05:28:15;55.95;;;27.95;;
75297;SDS011;63896;45.990;18.688;2024-03-23T05:31:26;58.60;;;27.30;;
75297;SDS011;63896;45.990;18.688;2024-03-23T05:34:29;57.20;;;28.05;;
75297;SDS011;63896;45.990;18.688;2024-03-23T05:37:33;58.95;;;29.35;;
75297;SDS011;63896;45.990;18.688;2024-03-23T05:40:35;54.88;;;27.92;;
75297;SDS011;63896;45.990;18.688;2024-03-23T05:43:38;65.00;;;28.60;;
75297;SDS011;63896;45.990;18.688;2024-03-23T05:46:41;58.03;;;28.73;;
75297;SDS011;63896;45.990;18.688;2024-03-23T05:49:43;51.42;;;27.48;;
75297;SDS011;63896;45.990;18.688;2024-03-23T05:52:45;58.47;;;28.42;;
75297;SDS011;63896;45.990;18.688;2024-03-23T05:55:47;54.88;;;28.02;;
75297;SDS011;63896;45.990;18.688;2024-03-23T05:58:51;54.97;;;27.27;;
75297;SDS011;63896;45.990;18.688;2024-03-23T06:01:53;49.33;;;25.77;;
75297;SDS011;63896;45.990;18.688;2024-03-23T06:04:55;50.15;;;25.65;;
75297;SDS011;63896;45.990;18.688;2024-03-23T06:07:57;54.78;;;26.67;;
75297;SDS011;63896;45.990;18.688;2024-03-23T06:10:58;54.80;;;27.80;;
75297;SDS011;63896;45.990;18.688;2024-03-23T06:14:00;57.30;;;27.77;;
75297;SDS011;63896;45.990;18.688;2024-03-23T06:17:02;55.30;;;27.37;;
75297;SDS011;63896;45.990;18.688;2024-03-23T06:20:04;56.83;;;28.27;;
75297;SDS011;63896;45.990;18.688;2024-03-23T06:23:07;51.13;;;26.15;;
75297;SDS011;63896;45.990;18.688;2024-03-23T06:26:09;44.88;;;24.98;;
75297;SDS011;63896;45.990;18.688;2024-03-23T06:29:11;40.50;;;22.75;;
75297;SDS011;63896;45.990;18.688;2024-03-23T06:32:13;38.17;;;21.73;;
75297;SDS011;63896;45.990;18.688;2024-03-23T06:35:15;43.25;;;22.73;;
75297;SDS011;63896;45.990;18.688;2024-03-23T06:38:16;41.50;;;24.27;;
75297;SDS011;63896;45.990;18.688;2024-03-23T06:41:19;39.35;;;22.67;;
75297;SDS011;63896;45.990;18.688;2024-03-23T06:44:21;35.10;;;20.67;;
75297;SDS011;63896;45.990;18.688;2024-03-23T06:47:22;33.07;;;19.93;;
75297;SDS011;63896;45.990;18.688;2024-03-23T06:50:24;33.67;;;19.55;;
75297;SDS011;63896;45.990;18.688;2024-03-23T06:53:26;29.92;;;18.83;;
75297;SDS011;63896;45.990;18.688;2024-03-23T06:56:28;27.73;;;18.90;;
75297;SDS011;63896;45.990;18.688;2024-03-23T06:59:30;30.48;;;18.38;;
75297;SDS011;63896;45.990;18.688;2024-03-23T07:02:31;27.90;;;19.20;;
75297;SDS011;63896;45.990;18.688;2024-03-23T07:05:33;32.97;;;20.05;;
75297;SDS011;63896;45.990;18.688;2024-03-23T07:08:35;26.98;;;16.92;;
75297;SDS011;63896;45.990;18.688;2024-03-23T07:11:37;29.60;;;17.30;;
75297;SDS011;63896;45.990;18.688;2024-03-23T07:14:39;26.17;;;16.88;;
75297;SDS011;63896;45.990;18.688;2024-03-23T07:17:41;23.33;;;16.43;;
75297;SDS011;63896;45.990;18.688;2024-03-23T07:20:45;21.98;;;15.40;;
75297;SDS011;63896;45.990;18.688;2024-03-23T07:23:56;23.38;;;17.20;;
75297;SDS011;63896;45.990;18.688;2024-03-23T07:26:57;21.70;;;16.48;;
75297;SDS011;63896;45.990;18.688;2024-03-23T07:29:59;21.30;;;15.27;;
75297;SDS011;63896;45.990;18.688;2024-03-23T07:33:02;22.87;;;15.53;;
75297;SDS011;63896;45.990;18.688;2024-03-23T07:36:04;20.40;;;14.15;;
75297;SDS011;63896;45.990;18.688;2024-03-23T07:39:06;22.38;;;14.10;;
75297;SDS011;63896;45.990;18.688;2024-03-23T07:42:09;18.90;;;13.98;;
75297;SDS011;63896;45.990;18.688;2024-03-23T07:45:11;17.48;;;13.07;;
75297;SDS011;63896;45.990;18.688;2024-03-23T07:48:13;16.87;;;12.73;;
75297;SDS011;63896;45.990;18.688;2024-03-23T07:51:21;18.38;;;12.55;;
75297;SDS011;63896;45.990;18.688;2024-03-23T07:54:24;15.27;;;12.32;;
75297;SDS011;63896;45.990;18.688;2024-03-23T07:57:26;17.88;;;12.30;;
75297;SDS011;63896;45.990;18.688;2024-03-23T08:00:27;15.25;;;11.27;;
75297;SDS011;63896;45.990;18.688;2024-03-23T08:03:29;15.83;;;11.47;;
75297;SDS011;63896;45.990;18.688;2024-03-23T08:06:31;17.52;;;10.07;;
75297;SDS011;63896;45.990;18.688;2024-03-23T08:09:33;13.30;;;10.35;;
75297;SDS011;63896;45.990;18.688;2024-03-23T08:12:34;16.85;;;10.32;;
75297;SDS011;63896;45.990;18.688;2024-03-23T08:15:36;17.83;;;10.18;;
75297;SDS011;63896;45.990;18.688;2024-03-23T08:18:39;22.20;;;10.30;;
75297;SDS011;63896;45.990;18.688;2024-03-23T08:21:41;21.63;;;10.13;;
75297;SDS011;63896;45.990;18.688;2024-03-23T08:24:43;20.40;;;10.23;;
75297;SDS011;63896;45.990;18.688;2024-03-23T08:27:45;14.15;;;9.55;;
75297;SDS011;63896;45.990;18.688;2024-03-23T08:30:47;11.75;;;9.23;;
75297;SDS011;63896;45.990;18.688;2024-03-23T08:33:48;14.50;;;10.13;;
75297;SDS011;63896;45.990;18.688;2024-03-23T08:36:51;14.95;;;10.27;;
75297;SDS011;63896;45.990;18.688;2024-03-23T08:39:53;14.52;;;10.38;;
75297;SDS011;63896;45.990;18.688;2024-03-23T08:42:54;16.15;;;10.02;;
75297;SDS011;63896;45.990;18.688;2024-03-23T08:46:06;15.50;;;9.70;;
75297;SDS011;63896;45.990;18.688;2024-03-23T08:49:09;16.17;;;10.03;;
75297;SDS011;63896;45.990;18.688;2024-03-23T08:52:11;15.95;;;10.52;;
75297;SDS011;63896;45.990;18.688;2024-03-23T08:55:12;14.35;;;10.10;;
75297;SDS011;63896;45.990;18.688;2024-03-23T08:58:15;18.73;;;11.00;;
75297;SDS011;63896;45.990;18.688;2024-03-23T09:01:18;13.27;;;10.20;;
75297;SDS011;63896;45.990;18.688;2024-03-23T09:04:20;14.97;;;10.03;;
75297;SDS011;63896;45.990;18.688;2024-03-23T09:07:22;15.27;;;9.88;;
75297;SDS011;63896;45.990;18.688;2024-03-23T09:10:24;13.55;;;9.55;;
75297;SDS011;63896;45.990;18.688;2024-03-23T09:13:26;12.93;;;9.25;;
75297;SDS011;63896;45.990;18.688;2024-03-23T09:16:28;12.35;;;9.35;;
75297;SDS011;63896;45.990;18.688;2024-03-23T09:19:30;12.70;;;8.73;;
75297;SDS011;63896;45.990;18.688;2024-03-23T09:22:32;11.23;;;9.27;;
75297;SDS011;63896;45.990;18.688;2024-03-23T09:25:40;15.05;;;10.00;;
75297;SDS011;63896;45.990;18.688;2024-03-23T09:28:42;13.02;;;8.85;;
75297;SDS011;63896;45.990;18.688;2024-03-23T09:31:44;14.57;;;9.75;;
75297;SDS011;63896;45.990;18.688;2024-03-23T09:34:46;13.50;;;9.43;;
75297;SDS011;63896;45.990;18.688;2024-03-23T09:37:48;14.68;;;9.35;;
75297;SDS011;63896;45.990;18.688;2024-03-23T09:40:52;16.25;;;9.60;;
75297;SDS011;63896;45.990;18.688;2024-03-23T09:43:54;11.50;;;9.23;;
75297;SDS011;63896;45.990;18.688;2024-03-23T09:46:56;14.70;;;9.75;;
75297;SDS011;63896;45.990;18.688;2024-03-23T09:49:59;11.80;;;6.70;;
75297;SDS011;63896;45.990;18.688;2024-03-23T09:53:02;11.50;;;6.65;;
75297;SDS011;63896;45.990;18.688;2024-03-23T09:56:04;16.63;;;7.30;;
75297;SDS011;63896;45.990;18.688;2024-03-23T09:59:06;12.75;;;6.40;;
75297;SDS011;63896;45.990;18.688;2024-03-23T10:02:07;8.10;;;5.85;;
75297;SDS011;63896;45.990;18.688;2024-03-23T10:05:22;8.70;;;6.03;;
75297;SDS011;63896;45.990;18.688;2024-03-23T10:08:25;7.90;;;4.72;;
75297;SDS011;63896;45.990;18.688;2024-03-23T10:11:27;9.05;;;6.20;;
75297;SDS011;63896;45.990;18.688;2024-03-23T10:14:30;7.75;;;5.65;;
75297;SDS011;63896;45.990;18.688;2024-03-23T10:17:32;10.43;;;6.13;;
75297;SDS011;63896;45.990;18.688;2024-03-23T10:20:34;11.13;;;5.60;;
75297;SDS011;63896;45.990;18.688;2024-03-23T10:23:36;7.40;;;5.30;;
75297;SDS011;63896;45.990;18.688;2024-03-23T10:26:38;8.77;;;6.50;;
75297;SDS011;63896;45.990;18.688;2024-03-23T10:29:41;10.85;;;6.38;;
75297;SDS011;63896;45.990;18.688;2024-03-23T10:32:42;9.82;;;5.60;;
75297;SDS011;63896;45.990;18.688;2024-03-23T10:35:44;10.53;;;5.10;;
75297;SDS011;63896;45.990;18.688;2024-03-23T10:38:49;8.38;;;4.85;;
75297;SDS011;63896;45.990;18.688;2024-03-23T10:41:52;6.65;;;4.30;;
75297;SDS011;63896;45.990;18.688;2024-03-23T10:44:57;4.85;;;3.58;;
75297;SDS011;63896;45.990;18.688;2024-03-23T10:47:59;10.38;;;3.78;;
75297;SDS011;63896;45.990;18.688;2024-03-23T10:51:02;8.47;;;4.30;;
75297;SDS011;63896;45.990;18.688;2024-03-23T10:54:04;7.15;;;3.90;;
75297;SDS011;63896;45.990;18.688;2024-03-23T10:57:09;6.82;;;3.50;;
75297;SDS011;63896;45.990;18.688;2024-03-23T11:00:14;4.85;;;3.55;;
75297;SDS011;63896;45.990;18.688;2024-03-23T11:03:30;6.95;;;3.95;;
75297;SDS011;63896;45.990;18.688;2024-03-23T11:06:36;4.50;;;4.03;;
75297;SDS011;63896;45.990;18.688;2024-03-23T11:09:40;6.28;;;3.90;;
75297;SDS011;63896;45.990;18.688;2024-03-23T11:12:46;7.05;;;4.25;;
75297;SDS011;63896;45.990;18.688;2024-03-23T11:15:48;7.30;;;4.60;;
75297;SDS011;63896;45.990;18.688;2024-03-23T11:18:50;4.88;;;4.35;;
75297;SDS011;63896;45.990;18.688;2024-03-23T11:21:52;5.27;;;3.67;;
75297;SDS011;63896;45.990;18.688;2024-03-23T11:24:55;5.72;;;3.40;;
75297;SDS011;63896;45.990;18.688;2024-03-23T11:28:10;5.18;;;3.88;;
75297;SDS011;63896;45.990;18.688;2024-03-23T11:31:13;6.05;;;3.70;;
75297;SDS011;63896;45.990;18.688;2024-03-23T11:34:16;6.13;;;3.42;;
75297;SDS011;63896;45.990;18.688;2024-03-23T11:37:18;5.27;;;3.47;;
75297;SDS011;63896;45.990;18.688;2024-03-23T11:40:20;6.03;;;3.63;;
75297;SDS011;63896;45.990;18.688;2024-03-23T11:43:22;3.97;;;3.40;;
75297;SDS011;63896;45.990;18.688;2024-03-23T11:46:25;3.95;;;3.25;;
75297;SDS011;63896;45.990;18.688;2024-03-23T11:49:29;9.35;;;3.50;;
75297;SDS011;63896;45.990;18.688;2024-03-23T11:52:31;9.80;;;3.53;;
75297;SDS011;63896;45.990;18.688;2024-03-23T11:55:40;4.35;;;2.85;;
75297;SDS011;63896;45.990;18.688;2024-03-23T11:58:42;6.88;;;3.20;;
75297;SDS011;63896;45.990;18.688;2024-03-23T12:01:44;4.25;;;2.90;;
75297;SDS011;63896;45.990;18.688;2024-03-23T12:04:46;5.70;;;3.35;;
75297;SDS011;63896;45.990;18.688;2024-03-23T12:07:48;5.90;;;3.70;;
75297;SDS011;63896;45.990;18.688;2024-03-23T12:10:51;4.93;;;3.38;;
75297;SDS011;63896;45.990;18.688;2024-03-23T12:13:54;4.97;;;3.50;;
75297;SDS011;63896;45.990;18.688;2024-03-23T12:17:11;7.70;;;3.95;;
75297;SDS011;63896;45.990;18.688;2024-03-23T12:20:31;7.18;;;3.80;;
75297;SDS011;63896;45.990;18.688;2024-03-23T12:23:33;6.47;;;3.40;;
75297;SDS011;63896;45.990;18.688;2024-03-23T12:26:35;6.20;;;3.40;;
75297;SDS011;63896;45.990;18.688;2024-03-23T12:29:38;4.93;;;3.00;;
75297;SDS011;63896;45.990;18.688;2024-03-23T12:32:40;2.97;;;2.58;;
75297;SDS011;63896;45.990;18.688;2024-03-23T12:35:42;4.15;;;2.60;;
75297;SDS011;63896;45.990;18.688;2024-03-23T12:38:44;3.20;;;2.30;;
75297;SDS011;63896;45.990;18.688;2024-03-23T12:41:46;5.13;;;2.17;;
75297;SDS011;63896;45.990;18.688;2024-03-23T12:44:47;3.05;;;2.40;;
75297;SDS011;63896;45.990;18.688;2024-03-23T12:47:49;3.00;;;2.50;;
75297;SDS011;63896;45.990;18.688;2024-03-23T12:50:54;7.97;;;2.67;;
75297;SDS011;63896;45.990;18.688;2024-03-23T12:53:56;2.50;;;2.30;;
75297;SDS011;63896;45.990;18.688;2024-03-23T12:56:58;5.20;;;2.47;;
75297;SDS011;63896;45.990;18.688;2024-03-23T13:00:00;2.83;;;2.40;;
75297;SDS011;63896;45.990;18.688;2024-03-23T13:03:02;2.88;;;2.22;;
75297;SDS011;63896;45.990;18.688;2024-03-23T13:06:05;4.93;;;2.10;;
75297;SDS011;63896;45.990;18.688;2024-03-23T13:09:09;2.10;;;1.80;;
75297;SDS011;63896;45.990;18.688;2024-03-23T13:12:11;4.00;;;2.00;;
75297;SDS011;63896;45.990;18.688;2024-03-23T13:15:15;2.30;;;1.88;;
75297;SDS011;63896;45.990;18.688;2024-03-23T13:18:19;5.75;;;1.95;;
75297;SDS011;63896;45.990;18.688;2024-03-23T13:21:20;2.75;;;1.77;;
75297;SDS011;63896;45.990;18.688;2024-03-23T13:24:23;4.73;;;1.80;;
75297;SDS011;63896;45.990;18.688;2024-03-23T13:27:25;5.80;;;1.88;;
75297;SDS011;63896;45.990;18.688;2024-03-23T13:30:27;4.18;;;1.60;;
75297;SDS011;63896;45.990;18.688;2024-03-23T13:33:29;3.85;;;1.83;;
75297;SDS011;63896;45.990;18.688;2024-03-23T13:36:33;3.85;;;2.25;;
75297;SDS011;63896;45.990;18.688;2024-03-23T13:39:35;3.13;;;2.27;;
75297;SDS011;63896;45.990;18.688;2024-03-23T13:42:37;8.75;;;3.53;;
75297;SDS011;63896;45.990;18.688;2024-03-23T13:45:38;4.90;;;2.95;;
75297;SDS011;63896;45.990;18.688;2024-03-23T13:48:40;3.08;;;1.90;;
75297;SDS011;63896;45.990;18.688;2024-03-23T13:51:46;3.85;;;2.70;;
75297;SDS011;63896;45.990;18.688;2024-03-23T13:54:48;3.97;;;2.07;;
75297;SDS011;63896;45.990;18.688;2024-03-23T13:57:50;2.42;;;2.03;;
75297;SDS011;63896;45.990;18.688;2024-03-23T14:00:52;3.38;;;2.30;;
75297;SDS011;63896;45.990;18.688;2024-03-23T14:03:54;4.03;;;2.10;;
75297;SDS011;63896;45.990;18.688;2024-03-23T14:06:57;4.43;;;2.45;;
75297;SDS011;63896;45.990;18.688;2024-03-23T14:10:02;4.43;;;2.77;;
75297;SDS011;63896;45.990;18.688;2024-03-23T14:13:12;5.40;;;2.90;;
75297;SDS011;63896;45.990;18.688;2024-03-23T14:16:13;14.40;;;6.20;;
75297;SDS011;63896;45.990;18.688;2024-03-23T14:19:15;8.75;;;2.88;;
75297;SDS011;63896;45.990;18.688;2024-03-23T14:22:17;5.50;;;3.22;;
75297;SDS011;63896;45.990;18.688;2024-03-23T14:25:24;4.90;;;3.27;;
75297;SDS011;63896;45.990;18.688;2024-03-23T14:28:28;5.32;;;3.22;;
75297;SDS011;63896;45.990;18.688;2024-03-23T14:31:30;3.85;;;3.03;;
75297;SDS011;63896;45.990;18.688;2024-03-23T14:34:32;6.97;;;2.97;;
75297;SDS011;63896;45.990;18.688;2024-03-23T14:37:34;4.63;;;2.20;;
75297;SDS011;63896;45.990;18.688;2024-03-23T14:40:36;4.03;;;2.37;;
75297;SDS011;63896;45.990;18.688;2024-03-23T14:43:38;5.25;;;2.13;;
75297;SDS011;63896;45.990;18.688;2024-03-23T14:46:39;4.13;;;2.60;;
75297;SDS011;63896;45.990;18.688;2024-03-23T14:49:41;5.28;;;2.72;;
75297;SDS011;63896;45.990;18.688;2024-03-23T14:52:46;5.07;;;2.50;;
75297;SDS011;63896;45.990;18.688;2024-03-23T14:55:48;4.73;;;2.37;;
75297;SDS011;63896;45.990;18.688;2024-03-23T14:58:53;5.50;;;2.20;;
75297;SDS011;63896;45.990;18.688;2024-03-23T15:01:58;4.18;;;2.50;;
75297;SDS011;63896;45.990;18.688;2024-03-23T15:05:01;5.25;;;2.60;;
75297;SDS011;63896;45.990;18.688;2024-03-23T15:08:05;7.35;;;4.05;;
75297;SDS011;63896;45.990;18.688;2024-03-23T15:11:07;4.60;;;3.20;;
75297;SDS011;63896;45.990;18.688;2024-03-23T15:14:09;8.02;;;3.40;;
75297;SDS011;63896;45.990;18.688;2024-03-23T15:17:12;8.95;;;4.80;;
75297;SDS011;63896;45.990;18.688;2024-03-23T15:20:13;7.97;;;4.28;;
75297;SDS011;63896;45.990;18.688;2024-03-23T15:23:15;5.97;;;3.95;;
75297;SDS011;63896;45.990;18.688;2024-03-23T15:26:17;6.33;;;3.83;;
75297;SDS011;63896;45.990;18.688;2024-03-23T15:29:20;7.03;;;3.92;;
75297;SDS011;63896;45.990;18.688;2024-03-23T15:32:23;9.18;;;5.60;;
75297;SDS011;63896;45.990;18.688;2024-03-23T15:35:25;13.70;;;6.03;;
75297;SDS011;63896;45.990;18.688;2024-03-23T15:38:27;17.60;;;5.55;;
75297;SDS011;63896;45.990;18.688;2024-03-23T15:41:30;23.87;;;6.57;;
75297;SDS011;63896;45.990;18.688;2024-03-23T15:44:32;24.65;;;7.75;;
75297;SDS011;63896;45.990;18.688;2024-03-23T15:47:34;22.48;;;8.13;;
75297;SDS011;63896;45.990;18.688;2024-03-23T15:50:37;16.02;;;4.10;;
75297;SDS011;63896;45.990;18.688;2024-03-23T15:53:38;16.35;;;3.50;;
75297;SDS011;63896;45.990;18.688;2024-03-23T15:56:40;6.17;;;2.70;;
75297;SDS011;63896;45.990;18.688;2024-03-23T15:59:42;11.05;;;3.22;;
75297;SDS011;63896;45.990;18.688;2024-03-23T16:02:44;10.95;;;3.45;;
75297;SDS011;63896;45.990;18.688;2024-03-23T16:05:51;13.18;;;5.68;;
75297;SDS011;63896;45.990;18.688;2024-03-23T16:08:57;12.32;;;6.82;;
75297;SDS011;63896;45.990;18.688;2024-03-23T16:11:58;13.10;;;6.93;;
75297;SDS011;63896;45.990;18.688;2024-03-23T16:15:00;13.20;;;7.68;;
75297;SDS011;63896;45.990;18.688;2024-03-23T16:18:02;13.57;;;7.07;;
75297;SDS011;63896;45.990;18.688;2024-03-23T16:21:04;12.13;;;5.88;;
75297;SDS011;63896;45.990;18.688;2024-03-23T16:24:06;15.88;;;6.47;;
75297;SDS011;63896;45.990;18.688;2024-03-23T16:27:09;12.53;;;6.10;;
75297;SDS011;63896;45.990;18.688;2024-03-23T16:30:11;11.23;;;5.65;;
75297;SDS011;63896;45.990;18.688;2024-03-23T16:33:13;12.57;;;5.10;;
75297;SDS011;63896;45.990;18.688;2024-03-23T16:36:15;10.57;;;5.75;;
75297;SDS011;63896;45.990;18.688;2024-03-23T16:39:18;11.40;;;6.60;;
75297;SDS011;63896;45.990;18.688;2024-03-23T16:42:20;13.97;;;6.60;;
75297;SDS011;63896;45.990;18.688;2024-03-23T16:45:22;12.95;;;6.75;;
75297;SDS011;63896;45.990;18.688;2024-03-23T16:48:25;18.80;;;7.03;;
75297;SDS011;63896;45.990;18.688;2024-03-23T16:51:27;13.40;;;7.40;;
75297;SDS011;63896;45.990;18.688;2024-03-23T16:54:29;15.00;;;7.93;;
75297;SDS011;63896;45.990;18.688;2024-03-23T16:57:31;19.63;;;10.60;;
75297;SDS011;63896;45.990;18.688;2024-03-23T17:00:33;33.33;;;19.05;;
75297;SDS011;63896;45.990;18.688;2024-03-23T17:03:36;48.92;;;27.48;;
75297;SDS011;63896;45.990;18.688;2024-03-23T17:06:39;44.35;;;23.83;;
75297;SDS011;63896;45.990;18.688;2024-03-23T17:09:46;38.15;;;22.10;;
75297;SDS011;63896;45.990;18.688;2024-03-23T17:12:48;31.87;;;19.13;;
75297;SDS011;63896;45.990;18.688;2024-03-23T17:15:50;32.40;;;17.88;;
75297;SDS011;63896;45.990;18.688;2024-03-23T17:18:52;26.42;;;16.90;;
75297;SDS011;63896;45.990;18.688;2024-03-23T17:21:54;25.13;;;15.30;;
75297;SDS011;63896;45.990;18.688;2024-03-23T17:24:56;30.40;;;14.98;;
75297;SDS011;63896;45.990;18.688;2024-03-23T17:27:58;23.17;;;13.40;;
75297;SDS011;63896;45.990;18.688;2024-03-23T17:31:00;19.98;;;12.43;;
75297;SDS011;63896;45.990;18.688;2024-03-23T17:34:02;30.65;;;15.27;;
75297;SDS011;63896;45.990;18.688;2024-03-23T17:37:04;21.25;;;11.63;;
75297;SDS011;63896;45.990;18.688;2024-03-23T17:40:06;6.25;;;3.17;;
75297;SDS011;63896;45.990;18.688;2024-03-23T17:43:09;3.50;;;2.30;;
75297;SDS011;63896;45.990;18.688;2024-03-23T17:46:11;4.30;;;2.53;;
75297;SDS011;63896;45.990;18.688;2024-03-23T17:49:12;5.68;;;3.00;;
75297;SDS011;63896;45.990;18.688;2024-03-23T17:52:14;8.18;;;3.53;;
75297;SDS011;63896;45.990;18.688;2024-03-23T17:55:16;7.35;;;3.85;;
75297;SDS011;63896;45.990;18.688;2024-03-23T17:58:18;5.60;;;3.37;;
75297;SDS011;63896;45.990;18.688;2024-03-23T18:01:20;6.13;;;3.47;;
75297;SDS011;63896;45.990;18.688;2024-03-23T18:04:24;7.32;;;3.50;;
75297;SDS011;63896;45.990;18.688;2024-03-23T18:07:25;7.03;;;3.05;;
75297;SDS011;63896;45.990;18.688;2024-03-23T18:10:27;7.07;;;3.53;;
75297;SDS011;63896;45.990;18.688;2024-03-23T18:13:30;7.27;;;3.20;;
75297;SDS011;63896;45.990;18.688;2024-03-23T18:16:32;7.75;;;3.60;;
75297;SDS011;63896;45.990;18.688;2024-03-23T18:19:34;7.40;;;3.28;;
75297;SDS011;63896;45.990;18.688;2024-03-23T18:22:36;7.13;;;3.25;;
75297;SDS011;63896;45.990;18.688;2024-03-23T18:25:37;6.07;;;3.20;;
75297;SDS011;63896;45.990;18.688;2024-03-23T18:28:39;5.60;;;3.30;;
75297;SDS011;63896;45.990;18.688;2024-03-23T18:31:41;10.13;;;3.40;;
75297;SDS011;63896;45.990;18.688;2024-03-23T18:34:43;8.95;;;3.30;;
75297;SDS011;63896;45.990;18.688;2024-03-23T18:37:45;5.03;;;3.10;;